createdAt,value
2017-12-27T00:00:02.689Z,992.80
2017-12-27T00:01:02.663Z,992.89
2017-12-27T00:02:02.625Z,992.83
2017-12-27T00:03:02.832Z,992.83
2017-12-27T00:04:02.558Z,992.78
2017-12-27T00:05:02.531Z,992.84
2017-12-27T00:06:02.494Z,992.75
2017-12-27T00:07:02.474Z,992.83
2017-12-27T00:08:02.432Z,992.78
2017-12-27T00:09:02.407Z,992.64
2017-12-27T00:10:02.366Z,992.83
2017-12-27T00:11:02.343Z,992.81
2017-12-27T00:12:02.316Z,992.83
2017-12-27T00:13:02.280Z,992.79
2017-12-27T00:14:02.553Z,992.77
2017-12-27T00:15:02.213Z,992.72
2017-12-27T00:16:02.179Z,992.71
2017-12-27T00:17:02.152Z,992.67
2017-12-27T00:18:02.120Z,992.69
2017-12-27T00:19:02.091Z,992.66
2017-12-27T00:20:02.063Z,992.64
2017-12-27T00:21:02.040Z,992.62
2017-12-27T00:22:02.000Z,992.57
2017-12-27T00:23:01.969Z,992.59
2017-12-27T00:24:01.945Z,992.56
2017-12-27T00:25:01.906Z,992.57
2017-12-27T00:26:02.220Z,992.55
2017-12-27T00:27:01.846Z,992.55
2017-12-27T00:28:01.814Z,992.59
2017-12-27T00:29:01.776Z,992.57
2017-12-27T00:30:01.748Z,992.58
2017-12-27T00:31:01.712Z,992.48
2017-12-27T00:32:01.689Z,992.52
2017-12-27T00:33:01.661Z,992.51
2017-12-27T00:34:01.624Z,992.51
2017-12-27T00:35:01.591Z,992.51
2017-12-27T00:36:01.557Z,992.46
2017-12-27T00:37:01.530Z,992.43
2017-12-27T00:38:01.532Z,992.41
2017-12-27T00:39:01.469Z,992.38
2017-12-27T00:40:01.477Z,992.44
2017-12-27T00:41:01.406Z,992.43
2017-12-27T00:42:01.381Z,992.40
2017-12-27T00:43:01.352Z,992.32
2017-12-27T00:44:01.324Z,992.34
2017-12-27T00:45:01.282Z,992.31
2017-12-27T00:46:01.257Z,992.31
2017-12-27T00:47:01.224Z,992.30
2017-12-27T00:48:01.189Z,992.31
2017-12-27T00:49:01.423Z,992.23
2017-12-27T00:50:01.128Z,992.27
2017-12-27T00:51:01.092Z,992.25
2017-12-27T00:52:01.067Z,992.21
2017-12-27T00:53:01.039Z,992.23
2017-12-27T00:54:01.007Z,992.21
2017-12-27T00:55:01.233Z,992.22
2017-12-27T00:56:00.958Z,992.21
2017-12-27T00:57:00.905Z,992.21
2017-12-27T00:58:00.882Z,992.18
2017-12-27T00:59:00.847Z,992.21
2017-12-27T01:00:00.824Z,992.16
2017-12-27T01:01:01.134Z,992.13
2017-12-27T01:02:00.755Z,992.10
2017-12-27T01:03:00.735Z,992.12
2017-12-27T01:04:00.701Z,992.11
2017-12-27T01:05:00.672Z,992.16
2017-12-27T01:06:00.636Z,992.12
2017-12-27T01:07:00.598Z,992.12
2017-12-27T01:08:00.571Z,992.20
2017-12-27T01:09:00.547Z,992.21
2017-12-27T01:10:00.509Z,992.25
2017-12-27T01:11:00.476Z,992.24
2017-12-27T01:12:00.459Z,992.19
2017-12-27T01:13:00.716Z,992.17
2017-12-27T01:14:00.386Z,992.16
2017-12-27T01:15:00.357Z,992.15
2017-12-27T01:16:00.326Z,992.18
2017-12-27T01:17:00.288Z,992.15
2017-12-27T01:18:00.255Z,992.14
2017-12-27T01:19:00.224Z,992.17
2017-12-27T01:20:00.194Z,992.12
2017-12-27T01:21:00.176Z,992.16
2017-12-27T01:22:00.133Z,992.12
2017-12-27T01:23:00.113Z,992.13
2017-12-27T01:24:00.071Z,992.20
2017-12-27T01:25:00.049Z,992.13
2017-12-27T01:26:00.020Z,992.15
2017-12-27T01:26:59.984Z,992.10
2017-12-27T01:27:59.952Z,992.18
2017-12-27T01:28:59.917Z,992.16
2017-12-27T01:29:59.890Z,992.06
2017-12-27T01:30:59.863Z,992.15
2017-12-27T01:31:59.828Z,992.10
2017-12-27T01:32:59.809Z,992.10
2017-12-27T01:33:59.757Z,992.07
2017-12-27T01:34:59.727Z,992.08
2017-12-27T01:35:59.696Z,991.98
2017-12-27T01:36:59.918Z,992.05
2017-12-27T01:37:59.645Z,992.01
2017-12-27T01:38:59.599Z,991.96
2017-12-27T01:39:59.578Z,991.93
2017-12-27T01:40:59.545Z,991.91
2017-12-27T01:41:59.515Z,991.96
2017-12-27T01:42:59.730Z,991.93
2017-12-27T01:43:59.451Z,991.88
2017-12-27T01:44:59.413Z,991.84
2017-12-27T01:45:59.381Z,991.80
2017-12-27T01:46:59.354Z,991.79
2017-12-27T01:47:59.325Z,991.78
2017-12-27T01:48:59.599Z,991.75
2017-12-27T01:49:59.266Z,991.71
2017-12-27T01:50:59.226Z,991.68
2017-12-27T01:51:59.201Z,991.64
2017-12-27T01:52:59.170Z,991.58
2017-12-27T01:53:59.147Z,991.54
2017-12-27T01:54:59.102Z,991.52
2017-12-27T01:55:59.077Z,991.45
2017-12-27T01:56:59.052Z,991.49
2017-12-27T01:57:59.013Z,991.47
2017-12-27T01:58:58.979Z,991.34
2017-12-27T01:59:58.961Z,991.44
2017-12-27T02:00:58.921Z,991.38
2017-12-27T02:01:58.888Z,991.34
2017-12-27T02:02:58.867Z,991.31
2017-12-27T02:03:58.840Z,991.29
2017-12-27T02:04:58.796Z,991.29
2017-12-27T02:05:58.761Z,991.34
2017-12-27T02:06:58.727Z,991.32
2017-12-27T02:07:58.699Z,991.26
2017-12-27T02:08:58.668Z,991.30
2017-12-27T02:09:58.643Z,991.26
2017-12-27T02:10:58.602Z,991.29
2017-12-27T02:11:58.570Z,991.23
2017-12-27T02:12:58.792Z,991.21
2017-12-27T02:13:58.521Z,991.15
2017-12-27T02:14:58.491Z,991.12
2017-12-27T02:15:58.456Z,991.09
2017-12-27T02:16:58.411Z,991.03
2017-12-27T02:17:58.382Z,991.03
2017-12-27T02:18:58.355Z,990.97
2017-12-27T02:19:58.332Z,990.99
2017-12-27T02:20:58.287Z,991.00
2017-12-27T02:21:58.258Z,990.92
2017-12-27T02:22:58.232Z,990.96
2017-12-27T02:23:58.198Z,990.99
2017-12-27T02:24:58.432Z,990.95
2017-12-27T02:25:58.133Z,990.94
2017-12-27T02:26:58.103Z,990.92
2017-12-27T02:27:58.070Z,990.85
2017-12-27T02:28:58.043Z,990.88
2017-12-27T02:29:58.021Z,990.82
2017-12-27T02:30:58.013Z,990.76
2017-12-27T02:31:57.948Z,990.80
2017-12-27T02:32:57.911Z,990.62
2017-12-27T02:33:57.931Z,990.66
2017-12-27T02:34:57.854Z,990.71
2017-12-27T02:35:57.822Z,990.61
2017-12-27T02:36:57.801Z,990.59
2017-12-27T02:37:57.766Z,990.56
2017-12-27T02:38:57.737Z,990.56
2017-12-27T02:39:57.705Z,990.54
2017-12-27T02:40:57.678Z,990.54
2017-12-27T02:41:57.638Z,990.51
2017-12-27T02:42:57.607Z,990.55
2017-12-27T02:43:57.568Z,990.50
2017-12-27T02:44:57.551Z,990.52
2017-12-27T02:45:57.508Z,990.50
2017-12-27T02:46:57.489Z,990.41
2017-12-27T02:47:57.445Z,990.44
2017-12-27T02:48:57.412Z,990.37
2017-12-27T02:49:57.384Z,990.34
2017-12-27T02:50:57.359Z,990.32
2017-12-27T02:51:57.321Z,990.38
2017-12-27T02:52:57.305Z,990.29
2017-12-27T02:53:57.268Z,990.24
2017-12-27T02:54:57.233Z,990.24
2017-12-27T02:55:57.192Z,990.21
2017-12-27T02:56:57.167Z,990.07
2017-12-27T02:57:57.139Z,990.12
2017-12-27T02:58:57.101Z,990.07
2017-12-27T02:59:57.076Z,990.08
2017-12-27T03:00:57.049Z,990.11
2017-12-27T03:01:57.007Z,990.06
2017-12-27T03:02:56.976Z,990.08
2017-12-27T03:03:56.951Z,990.05
2017-12-27T03:04:56.913Z,989.96
2017-12-27T03:05:56.880Z,989.99
2017-12-27T03:06:56.857Z,989.95
2017-12-27T03:07:56.826Z,989.90
2017-12-27T03:08:56.786Z,989.89
2017-12-27T03:09:56.761Z,989.84
2017-12-27T03:10:56.729Z,989.80
2017-12-27T03:11:56.695Z,989.65
2017-12-27T03:12:56.915Z,989.79
2017-12-27T03:13:56.636Z,989.81
2017-12-27T03:14:56.597Z,989.74
2017-12-27T03:15:56.570Z,989.70
2017-12-27T03:16:56.553Z,989.69
2017-12-27T03:17:56.507Z,989.72
2017-12-27T03:18:56.476Z,989.70
2017-12-27T03:19:56.444Z,989.66
2017-12-27T03:20:56.409Z,989.64
2017-12-27T03:21:56.378Z,989.55
2017-12-27T03:22:56.359Z,989.57
2017-12-27T03:23:56.323Z,989.59
2017-12-27T03:24:56.299Z,989.61
2017-12-27T03:25:56.257Z,989.59
2017-12-27T03:26:56.223Z,989.63
2017-12-27T03:27:56.199Z,989.65
2017-12-27T03:28:56.165Z,989.63
2017-12-27T03:29:56.141Z,989.59
2017-12-27T03:30:56.112Z,989.52
2017-12-27T03:31:56.076Z,989.59
2017-12-27T03:32:56.041Z,989.63
2017-12-27T03:33:56.012Z,989.50
2017-12-27T03:34:55.988Z,989.59
2017-12-27T03:35:55.947Z,989.55
2017-12-27T03:36:55.915Z,989.48
2017-12-27T03:37:55.888Z,989.42
2017-12-27T03:38:55.862Z,989.45
2017-12-27T03:39:55.826Z,989.45
2017-12-27T03:40:55.789Z,989.44
2017-12-27T03:41:56.010Z,989.56
2017-12-27T03:42:55.734Z,989.50
2017-12-27T03:43:55.696Z,989.56
2017-12-27T03:44:55.676Z,989.53
2017-12-27T03:45:55.638Z,989.47
2017-12-27T03:46:55.607Z,989.44
2017-12-27T03:47:55.879Z,989.40
2017-12-27T03:48:55.559Z,989.27
2017-12-27T03:49:55.512Z,989.38
2017-12-27T03:50:55.486Z,989.36
2017-12-27T03:51:55.458Z,989.32
2017-12-27T03:52:55.423Z,989.28
2017-12-27T03:53:56.136Z,989.23
2017-12-27T03:54:55.370Z,989.22
2017-12-27T03:55:55.335Z,989.06
2017-12-27T03:56:55.292Z,989.13
2017-12-27T03:57:55.267Z,989.02
2017-12-27T03:58:55.228Z,988.97
2017-12-27T03:59:55.204Z,989.00
2017-12-27T04:00:55.182Z,988.97
2017-12-27T04:01:55.143Z,989.02
2017-12-27T04:02:55.117Z,988.94
2017-12-27T04:03:55.081Z,988.66
2017-12-27T04:04:55.050Z,988.93
2017-12-27T04:05:55.014Z,988.96
2017-12-27T04:06:54.981Z,988.94
2017-12-27T04:07:54.964Z,988.93
2017-12-27T04:08:54.926Z,988.89
2017-12-27T04:09:54.897Z,988.84
2017-12-27T04:10:54.863Z,988.88
2017-12-27T04:11:54.831Z,988.88
2017-12-27T04:12:54.800Z,988.85
2017-12-27T04:13:54.770Z,988.85
2017-12-27T04:14:54.736Z,988.84
2017-12-27T04:15:54.704Z,988.88
2017-12-27T04:16:54.921Z,988.89
2017-12-27T04:17:54.639Z,988.86
2017-12-27T04:18:54.620Z,988.84
2017-12-27T04:19:54.585Z,988.79
2017-12-27T04:20:54.552Z,988.73
2017-12-27T04:21:54.521Z,988.79
2017-12-27T04:22:54.490Z,988.70
2017-12-27T04:23:54.453Z,988.67
2017-12-27T04:24:54.425Z,988.68
2017-12-27T04:25:54.392Z,988.62
2017-12-27T04:26:54.361Z,988.51
2017-12-27T04:27:54.332Z,988.48
2017-12-27T04:28:54.310Z,988.50
2017-12-27T04:29:54.270Z,988.41
2017-12-27T04:30:54.238Z,988.41
2017-12-27T04:31:54.210Z,988.45
2017-12-27T04:32:54.181Z,988.37
2017-12-27T04:33:54.146Z,988.33
2017-12-27T04:34:54.116Z,988.32
2017-12-27T04:35:54.093Z,988.34
2017-12-27T04:36:54.058Z,988.31
2017-12-27T04:37:54.024Z,988.36
2017-12-27T04:38:53.992Z,988.36
2017-12-27T04:39:53.959Z,988.33
2017-12-27T04:40:53.936Z,988.39
2017-12-27T04:41:53.892Z,988.23
2017-12-27T04:42:53.866Z,988.38
2017-12-27T04:43:53.829Z,988.43
2017-12-27T04:44:53.808Z,988.42
2017-12-27T04:45:53.770Z,988.39
2017-12-27T04:46:53.746Z,988.41
2017-12-27T04:47:53.707Z,988.37
2017-12-27T04:48:53.671Z,988.33
2017-12-27T04:49:53.638Z,988.33
2017-12-27T04:50:53.613Z,988.24
2017-12-27T04:51:53.593Z,988.23
2017-12-27T04:52:53.854Z,988.27
2017-12-27T04:53:53.514Z,988.24
2017-12-27T04:54:53.483Z,988.26
2017-12-27T04:55:53.456Z,988.28
2017-12-27T04:56:53.426Z,988.38
2017-12-27T04:57:53.397Z,988.29
2017-12-27T04:58:53.357Z,988.26
2017-12-27T04:59:53.337Z,988.28
2017-12-27T05:00:53.300Z,988.27
2017-12-27T05:01:53.276Z,988.29
2017-12-27T05:02:53.245Z,988.28
2017-12-27T05:03:53.208Z,988.16
2017-12-27T05:04:53.177Z,988.30
2017-12-27T05:05:53.146Z,988.21
2017-12-27T05:06:53.115Z,988.21
2017-12-27T05:07:53.080Z,988.24
2017-12-27T05:08:53.047Z,988.14
2017-12-27T05:09:53.013Z,988.18
2017-12-27T05:10:52.987Z,988.19
2017-12-27T05:11:52.958Z,988.16
2017-12-27T05:12:52.932Z,988.17
2017-12-27T05:13:52.899Z,988.07
2017-12-27T05:14:52.859Z,988.14
2017-12-27T05:15:52.836Z,988.09
2017-12-27T05:16:52.800Z,988.12
2017-12-27T05:17:52.769Z,988.11
2017-12-27T05:18:52.748Z,988.11
2017-12-27T05:19:52.710Z,988.05
2017-12-27T05:20:52.679Z,988.07
2017-12-27T05:21:52.643Z,988.01
2017-12-27T05:22:52.623Z,987.89
2017-12-27T05:23:52.586Z,987.96
2017-12-27T05:24:52.546Z,987.94
2017-12-27T05:25:52.521Z,987.98
2017-12-27T05:26:52.483Z,987.86
2017-12-27T05:27:52.715Z,987.86
2017-12-27T05:28:52.428Z,987.86
2017-12-27T05:29:52.401Z,987.89
2017-12-27T05:30:52.357Z,987.85
2017-12-27T05:31:52.327Z,987.83
2017-12-27T05:32:52.307Z,987.88
2017-12-27T05:33:52.270Z,987.86
2017-12-27T05:34:52.241Z,987.85
2017-12-27T05:35:52.208Z,987.82
2017-12-27T05:36:52.172Z,987.88
2017-12-27T05:37:52.142Z,987.83
2017-12-27T05:38:52.117Z,987.75
2017-12-27T05:39:52.091Z,987.79
2017-12-27T05:40:52.053Z,987.82
2017-12-27T05:41:52.017Z,987.82
2017-12-27T05:42:51.990Z,987.82
2017-12-27T05:43:51.959Z,987.77
2017-12-27T05:44:51.933Z,987.78
2017-12-27T05:45:51.894Z,987.61
2017-12-27T05:46:51.870Z,987.69
2017-12-27T05:47:51.834Z,987.72
2017-12-27T05:48:51.802Z,987.73
2017-12-27T05:49:51.782Z,987.75
2017-12-27T05:50:51.749Z,987.70
2017-12-27T05:51:51.725Z,987.72
2017-12-27T05:52:51.683Z,987.65
2017-12-27T05:53:51.652Z,987.57
2017-12-27T05:54:51.624Z,987.58
2017-12-27T05:55:51.591Z,987.59
2017-12-27T05:56:51.549Z,987.62
2017-12-27T05:57:51.831Z,987.50
2017-12-27T05:58:51.486Z,987.60
2017-12-27T05:59:51.461Z,987.54
2017-12-27T06:00:51.435Z,987.52
2017-12-27T06:01:51.404Z,987.53
2017-12-27T06:02:51.366Z,987.47
2017-12-27T06:03:51.342Z,987.41
2017-12-27T06:04:51.305Z,987.38
2017-12-27T06:05:51.287Z,987.39
2017-12-27T06:06:51.246Z,987.49
2017-12-27T06:07:51.220Z,987.45
2017-12-27T06:08:51.179Z,987.45
2017-12-27T06:09:51.151Z,987.42
2017-12-27T06:10:51.120Z,987.43
2017-12-27T06:11:51.092Z,987.39
2017-12-27T06:12:51.067Z,987.45
2017-12-27T06:13:51.028Z,987.42
2017-12-27T06:14:50.995Z,987.40
2017-12-27T06:15:51.217Z,987.30
2017-12-27T06:16:50.935Z,987.31
2017-12-27T06:17:50.908Z,987.28
2017-12-27T06:18:50.875Z,987.31
2017-12-27T06:19:50.840Z,987.29
2017-12-27T06:20:50.806Z,987.17
2017-12-27T06:21:50.784Z,987.20
2017-12-27T06:22:50.753Z,987.19
2017-12-27T06:23:50.718Z,987.10
2017-12-27T06:24:50.689Z,987.14
2017-12-27T06:25:50.662Z,987.11
2017-12-27T06:26:50.632Z,987.12
2017-12-27T06:27:50.594Z,987.15
2017-12-27T06:28:50.561Z,987.15
2017-12-27T06:29:50.533Z,987.05
2017-12-27T06:30:50.510Z,987.09
2017-12-27T06:31:50.478Z,987.09
2017-12-27T06:32:50.440Z,987.10
2017-12-27T06:33:50.406Z,987.03
2017-12-27T06:34:50.387Z,986.99
2017-12-27T06:35:50.353Z,987.02
2017-12-27T06:36:50.317Z,987.05
2017-12-27T06:37:50.296Z,987.00
2017-12-27T06:38:50.258Z,986.99
2017-12-27T06:39:50.230Z,986.92
2017-12-27T06:40:50.194Z,987.00
2017-12-27T06:41:50.169Z,986.97
2017-12-27T06:42:50.125Z,986.93
2017-12-27T06:43:50.108Z,986.77
2017-12-27T06:44:50.069Z,986.94
2017-12-27T06:45:50.043Z,986.89
2017-12-27T06:46:50.006Z,986.79
2017-12-27T06:47:49.981Z,986.86
2017-12-27T06:48:49.943Z,986.78
2017-12-27T06:49:49.911Z,986.78
2017-12-27T06:50:49.889Z,986.82
2017-12-27T06:51:49.860Z,986.70
2017-12-27T06:52:49.820Z,986.79
2017-12-27T06:53:49.789Z,986.71
2017-12-27T06:54:49.765Z,986.73
2017-12-27T06:55:49.727Z,986.73
2017-12-27T06:56:49.701Z,986.66
2017-12-27T06:57:49.673Z,986.68
2017-12-27T06:58:49.639Z,986.68
2017-12-27T06:59:49.600Z,986.60
2017-12-27T07:00:49.578Z,986.59
2017-12-27T07:01:49.541Z,986.53
2017-12-27T07:02:49.510Z,986.48
2017-12-27T07:03:49.733Z,986.54
2017-12-27T07:04:49.462Z,986.56
2017-12-27T07:05:49.414Z,986.54
2017-12-27T07:06:49.399Z,986.48
2017-12-27T07:07:49.367Z,986.37
2017-12-27T07:08:49.333Z,986.44
2017-12-27T07:09:49.298Z,986.49
2017-12-27T07:10:49.260Z,986.43
2017-12-27T07:11:49.270Z,986.39
2017-12-27T07:12:49.215Z,986.34
2017-12-27T07:13:49.181Z,986.35
2017-12-27T07:14:49.148Z,986.46
2017-12-27T07:15:49.106Z,986.37
2017-12-27T07:16:49.082Z,986.39
2017-12-27T07:17:49.057Z,986.35
2017-12-27T07:18:49.016Z,986.31
2017-12-27T07:19:48.991Z,986.30
2017-12-27T07:20:48.965Z,986.32
2017-12-27T07:21:48.932Z,986.35
2017-12-27T07:22:48.900Z,986.32
2017-12-27T07:23:48.863Z,986.35
2017-12-27T07:24:48.827Z,986.36
2017-12-27T07:25:48.798Z,986.34
2017-12-27T07:26:48.765Z,986.36
2017-12-27T07:27:48.744Z,986.33
2017-12-27T07:28:48.714Z,986.32
2017-12-27T07:29:48.686Z,986.34
2017-12-27T07:30:48.648Z,986.32
2017-12-27T07:31:48.615Z,986.29
2017-12-27T07:32:48.585Z,986.26
2017-12-27T07:33:48.853Z,986.27
2017-12-27T07:34:48.527Z,986.20
2017-12-27T07:35:48.498Z,986.13
2017-12-27T07:36:48.465Z,986.14
2017-12-27T07:37:48.432Z,986.14
2017-12-27T07:38:48.403Z,986.12
2017-12-27T07:39:48.368Z,986.07
2017-12-27T07:40:48.342Z,986.00
2017-12-27T07:41:48.320Z,986.10
2017-12-27T07:42:48.271Z,986.05
2017-12-27T07:43:48.248Z,986.08
2017-12-27T07:44:48.229Z,985.91
2017-12-27T07:45:48.183Z,985.85
2017-12-27T07:46:48.151Z,985.94
2017-12-27T07:47:48.116Z,985.53
2017-12-27T07:48:48.098Z,985.90
2017-12-27T07:49:48.066Z,985.79
2017-12-27T07:50:48.032Z,985.82
2017-12-27T07:51:48.026Z,985.79
2017-12-27T07:52:47.971Z,985.70
2017-12-27T07:53:47.932Z,985.60
2017-12-27T07:54:47.908Z,985.71
2017-12-27T07:55:47.875Z,985.78
2017-12-27T07:56:47.848Z,985.76
2017-12-27T07:57:47.814Z,985.69
2017-12-27T07:58:47.786Z,985.67
2017-12-27T07:59:47.761Z,985.65
2017-12-27T08:00:47.721Z,985.65
2017-12-27T08:01:47.691Z,985.67
2017-12-27T08:02:47.660Z,985.64
2017-12-27T08:03:47.629Z,985.67
2017-12-27T08:04:47.600Z,985.47
2017-12-27T08:05:47.574Z,985.61
2017-12-27T08:06:47.536Z,985.63
2017-12-27T08:07:47.506Z,985.73
2017-12-27T08:08:47.502Z,985.68
2017-12-27T08:09:47.443Z,985.63
2017-12-27T08:10:47.419Z,985.63
2017-12-27T08:11:47.389Z,985.55
2017-12-27T08:12:47.360Z,985.57
2017-12-27T08:13:47.316Z,985.58
2017-12-27T08:14:47.286Z,985.51
2017-12-27T08:15:47.255Z,985.49
2017-12-27T08:16:47.229Z,985.49
2017-12-27T08:17:47.204Z,985.50
2017-12-27T08:18:47.174Z,985.52
2017-12-27T08:19:47.141Z,985.47
2017-12-27T08:20:47.115Z,985.39
2017-12-27T08:21:47.074Z,985.45
2017-12-27T08:22:47.048Z,985.36
2017-12-27T08:23:47.008Z,985.41
2017-12-27T08:24:46.985Z,985.35
2017-12-27T08:25:46.952Z,985.38
2017-12-27T08:26:46.927Z,985.39
2017-12-27T08:27:46.891Z,985.33
2017-12-27T08:28:46.865Z,985.31
2017-12-27T08:29:46.841Z,985.34
2017-12-27T08:30:46.796Z,985.40
2017-12-27T08:31:46.768Z,985.32
2017-12-27T08:32:46.740Z,985.27
2017-12-27T08:33:46.706Z,985.13
2017-12-27T08:34:46.681Z,985.21
2017-12-27T08:35:46.655Z,985.16
2017-12-27T08:36:46.625Z,985.13
2017-12-27T08:37:46.586Z,985.12
2017-12-27T08:38:46.550Z,985.15
2017-12-27T08:39:46.525Z,985.03
2017-12-27T08:40:46.492Z,984.99
2017-12-27T08:41:46.466Z,985.05
2017-12-27T08:42:46.435Z,985.11
2017-12-27T08:43:46.400Z,985.11
2017-12-27T08:44:46.373Z,985.13
2017-12-27T08:45:46.348Z,985.06
2017-12-27T08:46:46.316Z,985.10
2017-12-27T08:47:46.290Z,985.08
2017-12-27T08:48:46.250Z,985.03
2017-12-27T08:49:46.219Z,985.04
2017-12-27T08:50:46.184Z,985.01
2017-12-27T08:51:46.156Z,985.00
2017-12-27T08:52:46.126Z,984.94
2017-12-27T08:53:46.095Z,984.97
2017-12-27T08:54:46.064Z,984.95
2017-12-27T08:55:46.035Z,984.98
2017-12-27T08:56:46.005Z,985.01
2017-12-27T08:57:45.971Z,985.01
2017-12-27T08:58:45.938Z,984.91
2017-12-27T08:59:45.912Z,984.96
2017-12-27T09:00:45.889Z,984.84
2017-12-27T09:01:45.852Z,984.93
2017-12-27T09:02:45.819Z,984.97
2017-12-27T09:03:45.792Z,984.98
2017-12-27T09:04:45.767Z,985.03
2017-12-27T09:05:45.723Z,984.96
2017-12-27T09:06:45.709Z,985.08
2017-12-27T09:07:45.673Z,984.94
2017-12-27T09:08:45.634Z,984.96
2017-12-27T09:09:45.606Z,985.05
2017-12-27T09:10:45.575Z,984.98
2017-12-27T09:11:45.543Z,985.07
2017-12-27T09:12:45.528Z,984.92
2017-12-27T09:13:45.489Z,984.97
2017-12-27T09:14:45.454Z,985.00
2017-12-27T09:15:45.433Z,984.96
2017-12-27T09:16:45.397Z,985.04
2017-12-27T09:17:45.369Z,985.01
2017-12-27T09:18:45.337Z,984.95
2017-12-27T09:19:45.310Z,985.03
2017-12-27T09:20:45.273Z,984.93
2017-12-27T09:21:45.241Z,985.03
2017-12-27T09:22:45.227Z,984.95
2017-12-27T09:23:45.195Z,985.02
2017-12-27T09:24:45.160Z,984.99
2017-12-27T09:25:45.120Z,985.01
2017-12-27T09:26:45.093Z,985.11
2017-12-27T09:27:45.061Z,985.11
2017-12-27T09:28:45.043Z,985.01
2017-12-27T09:29:45.006Z,985.09
2017-12-27T09:30:44.974Z,985.11
2017-12-27T09:31:44.979Z,985.00
2017-12-27T09:32:44.916Z,985.09
2017-12-27T09:33:44.887Z,985.06
2017-12-27T09:34:44.862Z,985.08
2017-12-27T09:35:44.840Z,985.10
2017-12-27T09:36:44.792Z,985.02
2017-12-27T09:37:44.767Z,985.16
2017-12-27T09:38:44.743Z,985.13
2017-12-27T09:39:44.710Z,985.13
2017-12-27T09:40:44.682Z,985.09
2017-12-27T09:41:44.642Z,985.12
2017-12-27T09:42:44.618Z,984.97
2017-12-27T09:43:44.592Z,985.10
2017-12-27T09:44:44.861Z,985.13
2017-12-27T09:45:44.533Z,985.01
2017-12-27T09:46:44.496Z,985.04
2017-12-27T09:47:44.471Z,985.02
2017-12-27T09:48:44.448Z,985.01
2017-12-27T09:49:44.424Z,985.00
2017-12-27T09:50:44.378Z,984.98
2017-12-27T09:51:44.348Z,984.92
2017-12-27T09:52:44.325Z,984.78
2017-12-27T09:53:44.291Z,984.88
2017-12-27T09:54:44.276Z,984.71
2017-12-27T09:55:44.235Z,984.77
2017-12-27T09:56:44.195Z,984.80
2017-12-27T09:57:44.204Z,984.65
2017-12-27T09:58:44.138Z,984.68
2017-12-27T09:59:44.107Z,984.64
2017-12-27T10:00:44.084Z,984.63
2017-12-27T10:01:44.052Z,984.68
2017-12-27T10:02:44.020Z,984.67
2017-12-27T10:03:43.985Z,984.65
2017-12-27T10:04:43.969Z,984.69
2017-12-27T10:05:43.938Z,984.57
2017-12-27T10:06:43.901Z,984.72
2017-12-27T10:07:43.875Z,984.75
2017-12-27T10:08:43.845Z,984.71
2017-12-27T10:09:43.809Z,984.66
2017-12-27T10:10:43.791Z,984.65
2017-12-27T10:11:43.754Z,984.69
2017-12-27T10:12:43.713Z,984.65
2017-12-27T10:13:43.688Z,984.60
2017-12-27T10:14:43.657Z,984.56
2017-12-27T10:15:43.624Z,984.58
2017-12-27T10:16:43.595Z,984.53
2017-12-27T10:17:43.576Z,984.55
2017-12-27T10:18:43.533Z,984.47
2017-12-27T10:19:43.510Z,984.43
2017-12-27T10:20:43.476Z,984.42
2017-12-27T10:21:43.452Z,984.33
2017-12-27T10:22:43.422Z,984.30
2017-12-27T10:23:43.386Z,984.30
2017-12-27T10:24:43.358Z,984.25
2017-12-27T10:25:43.322Z,984.23
2017-12-27T10:26:43.287Z,984.27
2017-12-27T10:27:43.268Z,984.27
2017-12-27T10:28:43.234Z,984.23
2017-12-27T10:29:43.203Z,984.15
2017-12-27T10:30:43.178Z,984.16
2017-12-27T10:31:43.147Z,984.17
2017-12-27T10:32:43.108Z,984.17
2017-12-27T10:33:43.092Z,984.10
2017-12-27T10:34:43.059Z,984.09
2017-12-27T10:35:43.031Z,984.11
2017-12-27T10:36:42.992Z,984.10
2017-12-27T10:37:42.965Z,984.07
2017-12-27T10:38:42.927Z,984.08
2017-12-27T10:39:42.900Z,984.06
2017-12-27T10:40:42.879Z,984.09
2017-12-27T10:41:42.841Z,984.03
2017-12-27T10:42:42.813Z,984.01
2017-12-27T10:43:42.774Z,983.93
2017-12-27T10:44:42.751Z,984.06
2017-12-27T10:45:42.720Z,983.93
2017-12-27T10:46:42.687Z,984.03
2017-12-27T10:47:42.669Z,983.99
2017-12-27T10:48:42.634Z,983.88
2017-12-27T10:49:42.598Z,983.92
2017-12-27T10:50:42.575Z,983.90
2017-12-27T10:51:42.543Z,983.89
2017-12-27T10:52:42.509Z,983.72
2017-12-27T10:53:42.480Z,983.86
2017-12-27T10:54:42.442Z,983.85
2017-12-27T10:55:42.418Z,983.85
2017-12-27T10:56:42.402Z,983.86
2017-12-27T10:57:42.358Z,983.83
2017-12-27T10:58:42.332Z,983.79
2017-12-27T10:59:42.292Z,983.76
2017-12-27T11:00:42.270Z,983.83
2017-12-27T11:01:42.246Z,983.83
2017-12-27T11:02:42.216Z,983.79
2017-12-27T11:03:42.186Z,983.81
2017-12-27T11:04:42.150Z,983.83
2017-12-27T11:05:42.125Z,983.79
2017-12-27T11:06:42.099Z,983.59
2017-12-27T11:07:42.061Z,983.84
2017-12-27T11:08:42.043Z,983.75
2017-12-27T11:09:41.999Z,983.84
2017-12-27T11:10:41.974Z,983.61
2017-12-27T11:11:41.936Z,983.80
2017-12-27T11:12:41.914Z,983.84
2017-12-27T11:13:42.133Z,983.80
2017-12-27T11:14:41.849Z,983.82
2017-12-27T11:15:41.826Z,983.80
2017-12-27T11:16:41.803Z,983.80
2017-12-27T11:17:41.765Z,983.69
2017-12-27T11:18:41.741Z,983.70
2017-12-27T11:19:41.707Z,983.62
2017-12-27T11:20:41.678Z,983.67
2017-12-27T11:21:41.648Z,983.68
2017-12-27T11:22:41.622Z,983.71
2017-12-27T11:23:41.595Z,983.71
2017-12-27T11:24:41.561Z,983.79
2017-12-27T11:25:41.528Z,983.81
2017-12-27T11:26:41.504Z,983.92
2017-12-27T11:27:41.474Z,983.91
2017-12-27T11:28:41.450Z,983.74
2017-12-27T11:29:41.426Z,983.42
2017-12-27T11:30:41.392Z,983.52
2017-12-27T11:31:41.358Z,983.29
2017-12-27T11:32:41.335Z,983.44
2017-12-27T11:33:41.312Z,983.31
2017-12-27T11:34:41.286Z,983.40
2017-12-27T11:35:41.257Z,983.35
2017-12-27T11:36:41.216Z,983.46
2017-12-27T11:37:41.188Z,983.28
2017-12-27T11:38:41.176Z,983.34
2017-12-27T11:39:41.147Z,983.31
2017-12-27T11:40:41.102Z,983.16
2017-12-27T11:41:41.076Z,983.22
2017-12-27T11:42:41.053Z,983.31
2017-12-27T11:43:41.028Z,983.31
2017-12-27T11:44:40.994Z,983.18
2017-12-27T11:45:40.974Z,983.29
2017-12-27T11:46:40.947Z,983.15
2017-12-27T11:47:40.906Z,983.22
2017-12-27T11:48:40.884Z,983.17
2017-12-27T11:49:40.859Z,983.08
2017-12-27T11:50:40.821Z,983.14
2017-12-27T11:51:40.792Z,983.08
2017-12-27T11:52:40.761Z,982.92
2017-12-27T11:53:40.735Z,983.07
2017-12-27T11:54:40.711Z,983.04
2017-12-27T11:55:40.681Z,983.00
2017-12-27T11:56:40.657Z,982.89
2017-12-27T11:57:40.614Z,982.92
2017-12-27T11:58:40.593Z,982.59
2017-12-27T11:59:40.562Z,983.02
2017-12-27T12:00:40.542Z,982.82
2017-12-27T12:01:40.513Z,983.03
2017-12-27T12:02:40.480Z,982.85
2017-12-27T12:03:40.449Z,982.91
2017-12-27T12:04:40.423Z,982.95
2017-12-27T12:05:40.399Z,982.85
2017-12-27T12:06:40.362Z,982.91
2017-12-27T12:07:40.337Z,982.89
2017-12-27T12:08:40.301Z,982.88
2017-12-27T12:09:40.269Z,982.90
2017-12-27T12:10:40.243Z,982.82
2017-12-27T12:11:40.213Z,982.76
2017-12-27T12:12:40.178Z,982.83
2017-12-27T12:13:40.502Z,982.77
2017-12-27T12:14:40.119Z,982.69
2017-12-27T12:15:40.091Z,982.77
2017-12-27T12:16:40.065Z,982.83
2017-12-27T12:17:40.044Z,982.68
2017-12-27T12:18:40.004Z,982.84
2017-12-27T12:19:39.975Z,982.68
2017-12-27T12:20:39.954Z,982.70
2017-12-27T12:21:39.919Z,982.69
2017-12-27T12:22:39.891Z,982.63
2017-12-27T12:23:39.870Z,982.68
2017-12-27T12:24:39.836Z,982.73
2017-12-27T12:25:39.803Z,982.71
2017-12-27T12:26:39.789Z,982.63
2017-12-27T12:27:39.749Z,982.57